Strona główna
METAR-TAF:

METAR-TAF

Lotnisko :

Port lotniczy Dinard-Pleurtuit-Saint Malo

Dinard, Francja

Szerokość geograficzna: 48-35N, Długość geograficzna: 002-04W, wysokość: 65 m

Aktualna obserwacja pogody

Raport powstał 23 minut temu, godzina 00:30 UTC
Wiatr 7 kt od południowy wschód
Temperatura 11°C
Wilgotność 58%
Ciśnienie 1014 hPa
Widzialność 10 km lub więcej
Brak chmur poniżej 1500 m i brak chmur cumulonimbus

METAR: LFRD 050030Z AUTO 13007KT CAVOK 11/03 Q1014

czas: 02:53 (00:53 UTC)


TAF: brakujący

Obserwacja i prognoza pogody dla ponad 4000 lotnisk (raport METAR i TAF).

Dostępne stacje oznaczono żółtymi i czerwonymi punktami na mapie.

Najedź kursorem aby zobaczyć nazwę stacji.

Kliknij aby zobaczyć obserwacje i prognozy pogody.

Aby zmienić mapę: kliknij na zielony przycisk z czarnym krzyżykiem, aby powiększyć; na zielony przycisk z myślnikiem, aby pomniejszyć; na zielone strzałki, aby przejść do map sąsiednich.


METAR-TAF: